createdAt,value
2018-01-03T00:01:56.005Z,1.95
2018-01-03T00:04:24.338Z,2.40
2018-01-03T00:06:51.924Z,2.13
2018-01-03T00:09:19.438Z,2.87
2018-01-03T00:11:46.989Z,3.10
2018-01-03T00:14:14.509Z,2.27
2018-01-03T00:16:43.648Z,2.33
2018-01-03T00:19:11.215Z,2.15
2018-01-03T00:21:38.793Z,2.30
2018-01-03T00:24:06.310Z,2.77
2018-01-03T00:26:34.590Z,3.10
2018-01-03T00:29:02.943Z,2.00
2018-01-03T00:31:30.461Z,1.90
2018-01-03T00:33:58.043Z,3.30
2018-01-03T00:36:25.565Z,2.73
2018-01-03T00:38:53.102Z,2.45
2018-01-03T00:41:21.381Z,2.40
2018-01-03T00:43:49.682Z,1.93
2018-01-03T00:46:17.206Z,2.77
2018-01-03T00:48:44.746Z,2.87
2018-01-03T00:51:12.274Z,2.37
2018-01-03T00:53:39.812Z,2.30
2018-01-03T00:56:07.335Z,2.90
2018-01-03T00:58:34.847Z,2.63
2018-01-03T01:01:02.394Z,2.43
2018-01-03T01:03:29.909Z,2.50
2018-01-03T01:05:57.450Z,2.50
2018-01-03T01:08:25.030Z,2.27
2018-01-03T01:10:52.565Z,3.20
2018-01-03T01:13:20.078Z,2.73
2018-01-03T01:15:48.382Z,2.85
2018-01-03T01:18:15.897Z,2.77
2018-01-03T01:20:43.445Z,2.05
2018-01-03T01:23:10.974Z,2.77
2018-01-03T01:25:38.485Z,3.00
2018-01-03T01:28:06.022Z,1.73
2018-01-03T01:30:33.541Z,3.10
2018-01-03T01:33:01.074Z,3.37
2018-01-03T01:35:29.358Z,2.63
2018-01-03T01:37:57.661Z,1.98
2018-01-03T01:40:25.178Z,2.70
2018-01-03T01:42:52.709Z,2.20
2018-01-03T01:45:20.225Z,2.60
2018-01-03T01:47:47.783Z,2.57
2018-01-03T01:50:15.298Z,2.87
2018-01-03T01:52:42.822Z,3.83
2018-01-03T01:55:10.354Z,2.60
2018-01-03T01:57:38.647Z,2.27
2018-01-03T02:00:06.201Z,2.53
2018-01-03T02:02:33.747Z,2.10
2018-01-03T02:05:02.051Z,2.53
2018-01-03T02:07:29.578Z,2.83
2018-01-03T02:09:57.882Z,2.45
2018-01-03T02:12:25.402Z,1.75
2018-01-03T02:14:52.938Z,2.10
2018-01-03T02:17:20.457Z,2.50
2018-01-03T02:19:47.997Z,2.97
2018-01-03T02:22:16.282Z,2.30
2018-01-03T02:24:44.562Z,2.10
2018-01-03T02:27:12.873Z,2.17
2018-01-03T02:29:40.400Z,2.53
2018-01-03T02:32:08.703Z,2.37
2018-01-03T02:34:36.231Z,1.63
2018-01-03T02:37:04.582Z,2.77
2018-01-03T02:39:32.102Z,2.27
2018-01-03T02:41:59.642Z,1.80
2018-01-03T02:44:27.169Z,1.50
2018-01-03T02:46:54.711Z,2.30
2018-01-03T02:49:22.226Z,2.30
2018-01-03T02:51:49.777Z,1.97
2018-01-03T02:54:18.061Z,2.30
2018-01-03T02:56:46.501Z,2.20
2018-01-03T02:59:14.038Z,2.40
2018-01-03T03:01:41.554Z,1.50
2018-01-03T03:04:09.858Z,2.20
2018-01-03T03:06:37.374Z,1.83
2018-01-03T03:09:04.915Z,2.00
2018-01-03T03:11:32.420Z,1.97
2018-01-03T03:14:00.722Z,2.20
2018-01-03T03:16:28.237Z,1.60
2018-01-03T03:18:55.766Z,1.87
2018-01-03T03:21:23.282Z,3.07
2018-01-03T03:23:50.830Z,1.83
2018-01-03T03:26:19.105Z,1.50
2018-01-03T03:28:47.426Z,2.00
2018-01-03T03:31:14.933Z,1.40
2018-01-03T03:33:43.218Z,1.10
2018-01-03T03:36:11.517Z,1.63
2018-01-03T03:38:39.025Z,1.40
2018-01-03T03:41:06.564Z,1.70
2018-01-03T03:43:34.082Z,1.50
2018-01-03T03:46:02.377Z,1.70
2018-01-03T03:48:29.897Z,1.50
2018-01-03T03:50:57.424Z,2.07
2018-01-03T03:53:25.701Z,1.77
2018-01-03T03:55:53.236Z,1.63
2018-01-03T03:58:20.749Z,1.00
2018-01-03T04:00:48.285Z,1.10
2018-01-03T04:03:15.829Z,1.50
2018-01-03T04:05:43.365Z,1.50
2018-01-03T04:08:10.878Z,1.50
2018-01-03T04:10:38.398Z,1.60
2018-01-03T04:13:05.937Z,1.87
2018-01-03T04:15:34.219Z,1.10
2018-01-03T04:18:01.749Z,1.80
2018-01-03T04:20:29.257Z,1.50
2018-01-03T04:22:56.794Z,1.30
2018-01-03T04:25:24.313Z,1.70
2018-01-03T04:27:51.845Z,1.40
2018-01-03T04:30:19.362Z,1.47
2018-01-03T04:32:47.667Z,1.40
2018-01-03T04:35:15.188Z,1.20
2018-01-03T04:37:43.489Z,1.40
2018-01-03T04:40:10.997Z,1.60
2018-01-03T04:42:38.510Z,1.77
2018-01-03T04:45:06.051Z,1.57
2018-01-03T04:47:34.330Z,1.60
2018-01-03T04:50:02.638Z,1.73
2018-01-03T04:52:30.150Z,1.40
2018-01-03T04:54:57.682Z,1.60
2018-01-03T04:57:25.202Z,1.90
2018-01-03T04:59:52.744Z,2.60
2018-01-03T05:02:21.022Z,2.40
2018-01-03T05:04:49.330Z,2.60
2018-01-03T05:07:16.842Z,1.47
2018-01-03T05:09:44.359Z,1.47
2018-01-03T05:12:11.894Z,1.80
2018-01-03T05:14:39.406Z,1.77
2018-01-03T05:17:06.937Z,1.53
2018-01-03T05:19:34.449Z,1.80
2018-01-03T05:22:02.749Z,1.47
2018-01-03T05:24:30.261Z,1.63
2018-01-03T05:26:57.803Z,1.67
2018-01-03T05:29:25.320Z,1.50
2018-01-03T05:31:53.629Z,1.50
2018-01-03T05:34:21.142Z,2.60
2018-01-03T05:36:48.655Z,1.80
2018-01-03T05:39:16.195Z,1.67
2018-01-03T05:41:43.705Z,1.60
2018-01-03T05:44:11.238Z,1.80
2018-01-03T05:46:38.754Z,1.40
2018-01-03T05:49:06.290Z,1.50
2018-01-03T05:51:33.798Z,1.30
2018-01-03T05:54:01.333Z,1.37
2018-01-03T05:56:28.866Z,1.30
2018-01-03T05:58:56.401Z,1.40
2018-01-03T06:01:24.686Z,1.90
2018-01-03T06:03:52.274Z,1.43
2018-01-03T06:06:19.789Z,1.30
2018-01-03T06:08:47.301Z,1.27
2018-01-03T06:11:15.602Z,1.23
2018-01-03T06:13:43.122Z,1.00
2018-01-03T06:16:10.657Z,1.13
2018-01-03T06:18:38.169Z,1.07
2018-01-03T06:21:05.708Z,1.07
2018-01-03T06:23:33.221Z,1.00
2018-01-03T06:26:01.541Z,1.10
2018-01-03T06:28:29.063Z,1.07
2018-01-03T06:30:56.606Z,1.13
2018-01-03T06:33:24.122Z,1.07
2018-01-03T06:35:51.658Z,0.70
2018-01-03T06:38:19.937Z,0.90
2018-01-03T06:40:47.477Z,0.90
2018-01-03T06:43:14.986Z,0.70
2018-01-03T06:45:42.504Z,0.80
2018-01-03T06:48:10.042Z,0.50
2018-01-03T06:50:37.554Z,0.50
2018-01-03T06:53:05.090Z,0.47
2018-01-03T06:55:32.602Z,0.67
2018-01-03T06:58:00.898Z,1.00
2018-01-03T07:00:28.413Z,0.77
2018-01-03T07:02:56.001Z,0.53
2018-01-03T07:05:24.282Z,0.60
2018-01-03T07:07:51.829Z,0.53
2018-01-03T07:10:20.116Z,0.70
2018-01-03T07:12:48.398Z,0.60
2018-01-03T07:15:15.941Z,0.70
2018-01-03T07:17:44.221Z,1.40
2018-01-03T07:20:12.521Z,0.80
2018-01-03T07:22:40.058Z,0.73
2018-01-03T07:25:07.613Z,0.80
2018-01-03T07:27:35.130Z,0.63
2018-01-03T07:30:02.664Z,0.47
2018-01-03T07:32:30.181Z,0.50
2018-01-03T07:34:57.702Z,0.93
2018-01-03T07:37:25.242Z,0.40
2018-01-03T07:39:52.750Z,0.60
2018-01-03T07:42:20.286Z,0.40
2018-01-03T07:44:47.797Z,0.30
2018-01-03T07:47:16.108Z,0.60
2018-01-03T07:49:43.622Z,0.40
2018-01-03T07:52:11.162Z,0.40
2018-01-03T07:54:38.675Z,0.40
2018-01-03T07:57:06.198Z,0.50
2018-01-03T07:59:33.734Z,1.70
2018-01-03T08:02:01.252Z,0.50
2018-01-03T08:04:28.791Z,1.17
2018-01-03T08:06:57.071Z,0.87
2018-01-03T08:09:25.382Z,1.13
2018-01-03T08:11:52.897Z,0.67
2018-01-03T08:14:20.436Z,0.53
2018-01-03T08:16:47.955Z,0.43
2018-01-03T08:19:15.535Z,0.40
2018-01-03T08:21:43.030Z,0.40
2018-01-03T08:24:10.565Z,1.33
2018-01-03T08:26:38.079Z,0.53
2018-01-03T08:29:06.390Z,0.90
2018-01-03T08:31:33.906Z,0.33
2018-01-03T08:34:02.194Z,0.27
2018-01-03T08:36:30.494Z,0.20
2018-01-03T08:38:58.019Z,1.07
2018-01-03T08:41:26.326Z,0.60
2018-01-03T08:43:53.847Z,0.50
2018-01-03T08:46:21.398Z,0.47
2018-01-03T08:48:48.909Z,0.87
2018-01-03T08:51:16.442Z,0.50
2018-01-03T08:53:44.726Z,0.30
2018-01-03T08:56:13.031Z,0.30
2018-01-03T08:58:40.551Z,0.40
2018-01-03T09:01:08.850Z,0.63
2018-01-03T09:03:36.366Z,0.50
2018-01-03T09:06:03.909Z,0.50
2018-01-03T09:08:31.418Z,1.13
2018-01-03T09:10:59.698Z,0.60
2018-01-03T09:13:27.997Z,0.73
2018-01-03T09:15:55.518Z,0.50
2018-01-03T09:18:23.049Z,0.73
2018-01-03T09:20:50.561Z,0.57
2018-01-03T09:23:18.104Z,0.80
2018-01-03T09:25:46.381Z,0.57
2018-01-03T09:28:14.690Z,0.73
2018-01-03T09:30:42.202Z,0.53
2018-01-03T09:33:09.738Z,1.10
2018-01-03T09:35:37.264Z,0.83
2018-01-03T09:38:04.794Z,0.53
2018-01-03T09:40:33.083Z,0.87
2018-01-03T09:43:01.398Z,0.60
2018-01-03T09:45:28.918Z,0.80
2018-01-03T09:47:57.201Z,0.90
2018-01-03T09:50:25.501Z,0.93
2018-01-03T09:52:53.018Z,0.93
2018-01-03T09:55:20.561Z,0.70
2018-01-03T09:57:48.078Z,0.73
2018-01-03T10:00:16.417Z,0.90
2018-01-03T10:02:43.938Z,0.73
2018-01-03T10:05:11.507Z,0.97
2018-01-03T10:07:39.035Z,0.80
2018-01-03T10:10:06.582Z,0.90
2018-01-03T10:12:34.858Z,0.80
2018-01-03T10:15:03.150Z,0.70
2018-01-03T10:17:30.692Z,1.23
2018-01-03T10:19:58.974Z,0.47
2018-01-03T10:22:27.274Z,0.70
2018-01-03T10:24:54.793Z,0.60
2018-01-03T10:27:23.094Z,0.80
2018-01-03T10:29:50.618Z,0.80
2018-01-03T10:32:18.154Z,0.83
2018-01-03T10:34:45.675Z,0.70
2018-01-03T10:37:13.217Z,0.70
2018-01-03T10:39:42.521Z,1.03
2018-01-03T10:42:10.829Z,0.77
2018-01-03T10:44:38.349Z,0.93
2018-01-03T10:47:05.870Z,0.90
2018-01-03T10:49:33.401Z,1.70
2018-01-03T10:52:00.917Z,1.60
2018-01-03T10:54:28.454Z,1.77
2018-01-03T10:56:55.966Z,1.40
2018-01-03T10:59:24.260Z,1.60
2018-01-03T11:01:51.777Z,0.60
2018-01-03T11:04:19.334Z,1.17
2018-01-03T11:06:47.124Z,0.53
2018-01-03T11:09:15.425Z,6.10
2018-01-03T11:11:42.941Z,3.20
2018-01-03T11:14:10.478Z,1.17
2018-01-03T11:16:38.003Z,0.50
2018-01-03T11:19:05.545Z,0.70
2018-01-03T11:21:33.825Z,1.43
2018-01-03T11:24:03.055Z,1.60
2018-01-03T11:26:30.598Z,3.37
2018-01-03T11:28:58.105Z,3.87
2018-01-03T11:31:25.637Z,4.43
2018-01-03T11:33:53.154Z,0.77
2018-01-03T11:36:21.453Z,1.10
2018-01-03T11:38:48.970Z,1.10
2018-01-03T11:41:16.509Z,0.83
2018-01-03T11:43:44.026Z,1.30
2018-01-03T11:46:11.553Z,0.83
2018-01-03T11:48:39.273Z,1.50
2018-01-03T11:51:06.849Z,1.80
2018-01-03T11:53:34.363Z,1.10
2018-01-03T11:56:02.644Z,0.93
2018-01-03T11:58:30.194Z,1.10
2018-01-03T12:00:58.473Z,1.60
2018-01-03T12:03:26.783Z,0.70
2018-01-03T12:05:54.298Z,1.33
2018-01-03T12:08:21.826Z,0.87
2018-01-03T12:10:49.336Z,1.87
2018-01-03T12:13:18.689Z,1.60
2018-01-03T12:15:47.090Z,1.40
2018-01-03T12:18:14.625Z,0.60
2018-01-03T12:20:42.143Z,2.70
2018-01-03T12:23:09.666Z,1.10
2018-01-03T12:25:37.194Z,2.03
2018-01-03T12:28:04.715Z,1.50
2018-01-03T12:30:33.018Z,2.50
2018-01-03T12:33:00.534Z,2.13
2018-01-03T12:35:28.069Z,2.40
2018-01-03T12:37:55.581Z,2.30
2018-01-03T12:40:23.882Z,1.60
2018-01-03T12:42:51.402Z,1.33
2018-01-03T12:45:19.705Z,1.10
2018-01-03T12:47:47.229Z,1.13
2018-01-03T12:50:14.778Z,1.83
2018-01-03T12:52:42.294Z,1.70
2018-01-03T12:55:09.804Z,1.43
2018-01-03T12:57:37.335Z,1.60
2018-01-03T13:00:04.858Z,1.93
2018-01-03T13:02:32.398Z,1.57
2018-01-03T13:04:59.910Z,1.13
2018-01-03T13:07:27.445Z,1.13
2018-01-03T13:09:54.965Z,1.27
2018-01-03T13:12:22.513Z,1.63
2018-01-03T13:14:50.805Z,1.30
2018-01-03T13:17:18.319Z,1.00
2018-01-03T13:19:45.853Z,1.90
2018-01-03T13:22:14.135Z,2.30
2018-01-03T13:24:41.670Z,1.10
2018-01-03T13:27:09.956Z,0.93
2018-01-03T13:29:38.258Z,1.73
2018-01-03T13:32:05.776Z,1.50
2018-01-03T13:34:33.314Z,1.73
2018-01-03T13:37:00.834Z,1.40
2018-01-03T13:39:28.378Z,1.83
2018-01-03T13:41:56.668Z,1.43
2018-01-03T13:44:24.193Z,1.30
2018-01-03T13:46:51.729Z,1.50
2018-01-03T13:49:19.242Z,2.07
2018-01-03T13:51:46.786Z,1.50
2018-01-03T13:54:14.310Z,2.00
2018-01-03T13:56:41.840Z,1.83
2018-01-03T13:59:09.353Z,2.20
2018-01-03T14:01:36.898Z,1.50
2018-01-03T14:04:04.409Z,2.00
2018-01-03T14:06:31.946Z,1.70
2018-01-03T14:09:00.230Z,1.97
2018-01-03T14:11:28.550Z,2.30
2018-01-03T14:13:56.072Z,2.50
2018-01-03T14:16:24.357Z,1.77
2018-01-03T14:18:52.657Z,2.00
2018-01-03T14:21:20.170Z,3.00
2018-01-03T14:23:47.699Z,1.57
2018-01-03T14:26:15.982Z,2.27
2018-01-03T14:28:44.290Z,2.40
2018-01-03T14:31:11.814Z,2.30
2018-01-03T14:33:39.354Z,1.70
2018-01-03T14:36:06.870Z,3.27
2018-01-03T14:38:34.401Z,1.97
2018-01-03T14:41:01.917Z,2.00
2018-01-03T14:43:29.465Z,2.47
2018-01-03T14:45:57.749Z,2.03
2018-01-03T14:48:26.026Z,3.93
2018-01-03T14:50:54.325Z,1.97
2018-01-03T14:53:21.850Z,1.73
2018-01-03T14:55:49.379Z,1.50
2018-01-03T14:58:16.901Z,3.03
2018-01-03T15:00:44.438Z,2.47
2018-01-03T15:03:12.723Z,1.93
2018-01-03T15:05:41.024Z,2.40
2018-01-03T15:08:08.550Z,2.43
2018-01-03T15:10:36.863Z,2.60
2018-01-03T15:13:04.374Z,2.03
2018-01-03T15:15:33.889Z,2.03
2018-01-03T15:18:01.429Z,2.53
2018-01-03T15:20:29.718Z,3.60
2018-01-03T15:22:57.254Z,2.50
2018-01-03T15:25:24.761Z,2.80
2018-01-03T15:27:53.061Z,2.03
2018-01-03T15:30:20.585Z,2.50
2018-01-03T15:32:48.126Z,3.37
2018-01-03T15:35:15.653Z,2.53
2018-01-03T15:37:43.191Z,2.03
2018-01-03T15:40:11.475Z,1.53
2018-01-03T15:42:39.779Z,2.40
2018-01-03T15:45:07.293Z,1.93
2018-01-03T15:47:34.845Z,3.17
2018-01-03T15:50:02.361Z,2.40
2018-01-03T15:52:29.924Z,2.87
2018-01-03T15:54:57.503Z,2.20
2018-01-03T15:57:25.026Z,3.37
2018-01-03T15:59:52.562Z,2.20
2018-01-03T16:02:20.845Z,2.47
2018-01-03T16:04:49.145Z,1.80
2018-01-03T16:07:16.703Z,1.77
2018-01-03T16:09:44.290Z,2.60
2018-01-03T16:12:11.812Z,3.00
2018-01-03T16:14:40.109Z,2.77
2018-01-03T16:17:07.626Z,3.60
2018-01-03T16:19:35.169Z,2.97
2018-01-03T16:22:02.694Z,2.47
2018-01-03T16:24:30.209Z,2.43
2018-01-03T16:26:57.742Z,1.60
2018-01-03T16:29:25.300Z,2.03
2018-01-03T16:31:52.876Z,2.30
2018-01-03T16:34:20.394Z,1.43
2018-01-03T16:36:47.930Z,1.83
2018-01-03T16:39:16.214Z,1.37
2018-01-03T16:41:43.740Z,1.60
2018-01-03T16:44:11.313Z,1.60
2018-01-03T16:46:38.888Z,1.60
2018-01-03T16:49:07.217Z,1.60
2018-01-03T16:51:40.373Z,1.30
2018-01-03T16:54:07.890Z,1.90
2018-01-03T16:56:35.434Z,1.73
2018-01-03T16:59:02.999Z,2.70
2018-01-03T17:01:30.513Z,1.60
2018-01-03T17:03:58.046Z,1.77
2018-01-03T17:06:26.325Z,1.70
2018-01-03T17:08:54.688Z,1.93
2018-01-03T17:11:22.197Z,1.37
2018-01-03T17:13:49.737Z,1.70
2018-01-03T17:16:17.299Z,2.63
2018-01-03T17:18:44.837Z,1.73
2018-01-03T17:21:13.164Z,1.57
2018-01-03T17:23:40.681Z,1.93
2018-01-03T17:26:09.031Z,3.87
2018-01-03T17:28:38.242Z,2.17
2018-01-03T17:31:05.842Z,3.73
2018-01-03T17:33:33.358Z,1.90
2018-01-03T17:36:00.945Z,1.83
2018-01-03T17:38:29.226Z,2.17
2018-01-03T17:40:57.525Z,2.13
2018-01-03T17:43:25.088Z,1.60
2018-01-03T17:45:52.630Z,2.40
2018-01-03T17:48:20.960Z,2.20
2018-01-03T17:50:48.493Z,2.07
2018-01-03T17:53:16.065Z,2.70
2018-01-03T17:55:43.611Z,2.50
2018-01-03T17:58:11.176Z,2.20
2018-01-03T18:00:38.740Z,3.07
2018-01-03T18:03:06.315Z,1.90
2018-01-03T18:05:33.880Z,1.70
2018-01-03T18:08:01.414Z,3.03
2018-01-03T18:10:28.985Z,2.57
2018-01-03T18:12:56.572Z,1.80
2018-01-03T18:15:24.093Z,3.93
2018-01-03T18:17:51.669Z,1.93
2018-01-03T18:20:19.219Z,2.50
2018-01-03T18:22:46.777Z,2.40
2018-01-03T18:25:14.313Z,2.50
2018-01-03T18:27:42.634Z,2.33
2018-01-03T18:30:10.224Z,2.20
2018-01-03T18:32:37.789Z,3.40
2018-01-03T18:35:05.372Z,1.60
2018-01-03T18:37:33.705Z,1.63
2018-01-03T18:40:01.293Z,1.70
2018-01-03T18:42:28.852Z,2.23
2018-01-03T18:44:56.444Z,1.73
2018-01-03T18:47:24.777Z,1.70
2018-01-03T18:49:52.373Z,1.33
2018-01-03T18:52:20.720Z,4.17
2018-01-03T18:54:48.289Z,2.90
2018-01-03T18:57:15.889Z,1.90
2018-01-03T18:59:43.494Z,3.30
2018-01-03T19:02:11.076Z,1.70
2018-01-03T19:04:38.650Z,1.73
2018-01-03T19:07:07.025Z,1.80
2018-01-03T19:09:34.594Z,1.50
2018-01-03T19:12:03.729Z,2.20
2018-01-03T19:14:31.294Z,1.97
2018-01-03T19:16:58.880Z,2.30
2018-01-03T19:19:26.441Z,1.90
2018-01-03T19:21:54.010Z,2.17
2018-01-03T19:24:21.598Z,2.30
2018-01-03T19:26:49.171Z,1.93
2018-01-03T19:29:16.757Z,2.27
2018-01-03T19:31:44.330Z,1.67
2018-01-03T19:34:11.913Z,2.07
2018-01-03T19:36:39.468Z,2.00
2018-01-03T19:39:07.049Z,1.90
2018-01-03T19:41:34.618Z,3.20
2018-01-03T19:44:02.241Z,2.83
2018-01-03T19:46:29.799Z,2.17
2018-01-03T19:48:57.383Z,3.00
2018-01-03T19:51:24.960Z,1.67
2018-01-03T19:53:52.534Z,2.30
2018-01-03T19:56:20.880Z,1.87
2018-01-03T19:58:48.450Z,2.43
2018-01-03T20:01:16.027Z,2.23
2018-01-03T20:03:44.369Z,3.40
2018-01-03T20:06:11.957Z,3.23
2018-01-03T20:08:39.530Z,2.63
2018-01-03T20:11:07.875Z,2.13
2018-01-03T20:13:35.441Z,3.33
2018-01-03T20:16:03.020Z,3.63
2018-01-03T20:18:30.591Z,3.10
2018-01-03T20:20:58.957Z,3.20
2018-01-03T20:23:26.530Z,3.70
2018-01-03T20:25:54.097Z,2.40
2018-01-03T20:28:22.450Z,2.20
2018-01-03T20:30:50.026Z,2.83
2018-01-03T20:33:17.622Z,3.03
2018-01-03T20:35:45.194Z,2.77
2018-01-03T20:38:12.767Z,2.47
2018-01-03T20:40:40.337Z,2.40
2018-01-03T20:43:07.913Z,2.30
2018-01-03T20:45:35.466Z,3.90
2018-01-03T20:48:03.066Z,4.00
2018-01-03T20:50:31.405Z,4.33
2018-01-03T20:52:59.005Z,3.80
2018-01-03T20:55:27.337Z,2.90
2018-01-03T20:57:55.663Z,4.60
2018-01-03T21:00:24.000Z,4.10
2018-01-03T21:02:51.563Z,5.60
2018-01-03T21:05:19.157Z,3.90
2018-01-03T21:07:47.492Z,5.10
2018-01-03T21:10:15.081Z,6.33
2018-01-03T21:12:42.658Z,5.30
2018-01-03T21:15:11.033Z,4.50
2018-01-03T21:17:38.605Z,6.63
2018-01-03T21:20:06.989Z,4.17
2018-01-03T21:22:35.327Z,5.00
2018-01-03T21:25:04.084Z,5.90
2018-01-03T21:27:31.674Z,4.67
2018-01-03T21:29:59.247Z,5.10
2018-01-03T21:32:26.832Z,3.37
2018-01-03T21:34:55.166Z,3.37
2018-01-03T21:37:22.747Z,4.17
2018-01-03T21:39:50.298Z,4.43
2018-01-03T21:42:17.890Z,3.27
2018-01-03T21:44:46.230Z,4.30
2018-01-03T21:47:13.821Z,3.50
2018-01-03T21:49:41.380Z,3.50
2018-01-03T21:52:08.976Z,3.07
2018-01-03T21:54:36.554Z,3.17
2018-01-03T21:57:04.129Z,3.80
2018-01-03T21:59:31.727Z,4.40
2018-01-03T22:01:59.299Z,3.37
2018-01-03T22:04:27.654Z,3.97
2018-01-03T22:06:55.222Z,3.70
2018-01-03T22:09:22.807Z,4.60
2018-01-03T22:11:51.142Z,3.97
2018-01-03T22:14:18.737Z,3.40
2018-01-03T22:16:46.313Z,3.37
2018-01-03T22:19:13.903Z,3.80
2018-01-03T22:21:41.465Z,3.17
2018-01-03T22:24:09.061Z,3.17
2018-01-03T22:26:37.887Z,3.00
2018-01-03T22:29:06.220Z,3.73
2018-01-03T22:31:33.804Z,3.80
2018-01-03T22:34:01.371Z,3.80
2018-01-03T22:36:28.966Z,4.40
2018-01-03T22:38:56.538Z,3.47
2018-01-03T22:41:24.129Z,3.53
2018-01-03T22:43:51.698Z,3.80
2018-01-03T22:46:19.285Z,3.03
2018-01-03T22:48:47.621Z,2.70
2018-01-03T22:51:15.205Z,3.50
2018-01-03T22:53:42.782Z,3.97
2018-01-03T22:56:11.146Z,3.00
2018-01-03T22:58:38.710Z,5.13
2018-01-03T23:01:06.271Z,3.77
2018-01-03T23:03:33.865Z,3.03
2018-01-03T23:06:01.438Z,5.00
2018-01-03T23:08:29.026Z,2.70
2018-01-03T23:10:56.601Z,3.10
2018-01-03T23:13:24.198Z,5.30
2018-01-03T23:15:52.533Z,3.50
2018-01-03T23:18:20.877Z,3.23
2018-01-03T23:20:48.466Z,3.17
2018-01-03T23:23:16.021Z,3.40
2018-01-03T23:25:43.607Z,3.00
2018-01-03T23:28:11.178Z,4.00
2018-01-03T23:30:38.773Z,3.83
2018-01-03T23:33:06.350Z,2.83
2018-01-03T23:35:33.944Z,3.33
2018-01-03T23:38:01.512Z,3.30
2018-01-03T23:40:29.081Z,2.73
2018-01-03T23:42:56.661Z,2.93
2018-01-03T23:45:24.992Z,3.53
2018-01-03T23:47:52.578Z,2.83
2018-01-03T23:50:20.104Z,3.83
2018-01-03T23:52:47.688Z,2.97
2018-01-03T23:55:15.247Z,3.80
2018-01-03T23:57:42.836Z,3.97
